Whitwell, Tennessee
Current Conditions -  °F | °C
As of 7:53 PM on Thursday 20 Nov 2014 (Local Time) from KCHA Reporting Station
Clear Clear  
Wind Chill: 41°   Ceiling: Unl
Heat Index: 41°   Visibility: 10mi
Dew Point: 27°   Wind: 0mph
Humidity: 57%   Direction: NA
Pressure: 30.25"   Gusts: NA
Location:  35.2°N, 85.52°W
Report Text: KCHA 210153Z 00000KT 10SM CLR 05/M03 A3025 RMK AO2 SLP246 T00501028
Loading
Personal Weather Stations






























Interactive Weather Map New forecast layout! Learn more

10-Day Weather Forecast

Advertisements
Track Severe Weather on mobile